createdAt,value
2022-12-06T00:03:51.188Z,56.99
2022-12-06T00:08:54.108Z,56.99
2022-12-06T00:14:00.493Z,56.74
2022-12-06T00:19:03.317Z,56.60
2022-12-06T00:24:29.089Z,56.60
2022-12-06T00:29:35.921Z,56.72
2022-12-06T00:34:42.851Z,56.31
2022-12-06T00:39:47.593Z,56.53
2022-12-06T00:44:52.819Z,56.34
2022-12-06T00:49:54.606Z,56.14
2022-12-06T00:54:56.220Z,56.30
2022-12-06T01:00:03.313Z,56.95
2022-12-06T01:05:09.146Z,56.68
2022-12-06T01:10:18.476Z,56.81
2022-12-06T01:15:24.729Z,56.39
2022-12-06T01:20:26.264Z,57.06
2022-12-06T01:25:30.612Z,56.24
2022-12-06T01:30:45.764Z,56.36
2022-12-06T01:35:50.831Z,56.59
2022-12-06T01:40:54.722Z,56.51
2022-12-06T01:45:59.408Z,56.27
2022-12-06T01:51:02.205Z,56.59
2022-12-06T01:56:06.060Z,56.85
2022-12-06T02:01:09.596Z,56.60
2022-12-06T02:06:13.812Z,56.06
2022-12-06T02:11:15.402Z,55.88
2022-12-06T02:16:59.584Z,56.00
2022-12-06T02:22:40.359Z,56.29
2022-12-06T02:28:01.336Z,56.35
2022-12-06T02:33:08.323Z,56.23
2022-12-06T02:38:46.756Z,56.43
2022-12-06T02:43:56.969Z,55.84
2022-12-06T02:49:00.428Z,56.01
2022-12-06T02:54:14.902Z,56.48
2022-12-06T02:59:16.630Z,56.28
2022-12-06T03:05:10.667Z,55.85
2022-12-06T03:10:37.761Z,55.99
2022-12-06T03:15:47.329Z,55.92
2022-12-06T03:20:56.504Z,56.48
2022-12-06T03:26:12.635Z,56.54
2022-12-06T03:31:16.778Z,56.12
2022-12-06T03:36:22.500Z,56.54
2022-12-06T03:41:28.538Z,56.11
2022-12-06T03:46:38.128Z,56.09
2022-12-06T03:51:50.062Z,56.38
2022-12-06T03:56:54.358Z,55.76
2022-12-06T04:02:07.684Z,55.88
2022-12-06T04:07:12.585Z,55.50
2022-12-06T04:12:40.952Z,55.91
2022-12-06T04:18:05.183Z,55.53
2022-12-06T04:23:10.992Z,55.57
2022-12-06T04:28:39.505Z,55.44
2022-12-06T04:34:01.284Z,55.77
2022-12-06T04:39:02.830Z,55.95
2022-12-06T04:44:06.093Z,55.90
2022-12-06T04:49:12.716Z,55.79
2022-12-06T04:54:23.940Z,55.97
2022-12-06T04:59:32.856Z,55.99
2022-12-06T05:04:36.686Z,55.89
2022-12-06T05:09:41.512Z,56.19
2022-12-06T05:14:43.087Z,55.44
2022-12-06T05:19:44.636Z,55.78
2022-12-06T05:24:48.442Z,55.82
2022-12-06T05:29:52.381Z,55.85
2022-12-06T05:34:56.042Z,56.11
2022-12-06T05:40:01.585Z,55.83
2022-12-06T05:45:14.835Z,55.89
2022-12-06T05:50:18.697Z,56.10
2022-12-06T05:55:22.497Z,56.08
2022-12-06T06:00:24.261Z,56.23
2022-12-06T06:05:52.432Z,56.01
2022-12-06T06:10:58.110Z,56.12
2022-12-06T06:16:02.168Z,56.00
2022-12-06T06:21:04.472Z,55.83
2022-12-06T06:26:10.100Z,55.97
2022-12-06T06:31:13.953Z,56.26
2022-12-06T06:36:26.071Z,55.83
2022-12-06T06:41:27.664Z,56.19
2022-12-06T06:46:31.987Z,55.90
2022-12-06T06:51:34.183Z,56.06
2022-12-06T06:56:40.561Z,56.03
2022-12-06T07:01:51.058Z,55.90
2022-12-06T07:07:00.541Z,56.15
2022-12-06T07:12:08.120Z,55.60
2022-12-06T07:17:12.226Z,55.76
2022-12-06T07:22:14.953Z,55.78
2022-12-06T07:27:21.410Z,55.79
2022-12-06T07:32:27.637Z,55.84
2022-12-06T07:37:29.281Z,55.98
2022-12-06T07:42:49.552Z,56.13
2022-12-06T07:47:51.517Z,55.81
2022-12-06T07:52:58.351Z,55.97
2022-12-06T07:58:08.319Z,56.10
2022-12-06T08:03:15.259Z,55.94
2022-12-06T08:08:22.575Z,56.44
2022-12-06T08:13:38.314Z,56.29
2022-12-06T08:18:42.796Z,55.81
2022-12-06T08:29:04.765Z,56.21
2022-12-06T08:34:08.731Z,56.21
2022-12-06T08:39:13.090Z,55.97
2022-12-06T08:44:15.816Z,56.16
2022-12-06T08:49:17.730Z,56.37
2022-12-06T08:54:26.843Z,56.35
2022-12-06T08:59:30.896Z,56.41
2022-12-06T09:04:33.076Z,56.24
2022-12-06T09:09:34.595Z,56.92
2022-12-06T09:14:40.332Z,56.55
2022-12-06T09:19:45.512Z,56.75
2022-12-06T09:24:49.311Z,56.35
2022-12-06T09:29:51.076Z,56.59
2022-12-06T09:34:55.041Z,56.75
2022-12-06T09:40:11.731Z,56.84
2022-12-06T09:45:46.103Z,56.52
2022-12-06T09:51:17.497Z,56.83
2022-12-06T09:56:37.509Z,56.75
2022-12-06T10:02:01.093Z,56.74
2022-12-06T10:07:19.794Z,56.66
2022-12-06T10:12:33.313Z,57.22
2022-12-06T10:17:37.297Z,56.92
2022-12-06T10:23:00.310Z,56.50
2022-12-06T10:28:25.423Z,56.84
2022-12-06T10:33:43.226Z,56.84
2022-12-06T10:38:50.629Z,56.54
2022-12-06T10:44:16.026Z,56.42
2022-12-06T10:49:27.696Z,56.60
2022-12-06T10:54:58.320Z,56.81
2022-12-06T11:00:11.824Z,56.60
2022-12-06T11:05:24.142Z,57.05
2022-12-06T11:10:30.839Z,57.03
2022-12-06T11:16:05.503Z,56.50
2022-12-06T11:21:33.378Z,57.08
2022-12-06T11:26:46.471Z,57.10
2022-12-06T11:32:07.716Z,57.13
2022-12-06T11:37:20.283Z,56.61
2022-12-06T11:42:26.705Z,56.72
2022-12-06T11:47:29.765Z,57.11
2022-12-06T11:52:38.737Z,56.91
2022-12-06T11:58:03.594Z,57.01
2022-12-06T12:03:29.549Z,56.93
2022-12-06T12:08:33.459Z,57.36
2022-12-06T12:13:45.281Z,57.39
2022-12-06T12:18:54.130Z,57.03
2022-12-06T12:23:59.488Z,57.58
2022-12-06T12:29:20.829Z,57.71
2022-12-06T12:34:48.019Z,57.44
2022-12-06T12:39:53.833Z,57.28
2022-12-06T12:45:03.584Z,57.35
2022-12-06T12:50:25.001Z,57.88
2022-12-06T12:55:33.870Z,57.58
2022-12-06T13:00:48.239Z,57.64
2022-12-06T13:05:53.005Z,57.29
2022-12-06T13:11:01.956Z,57.35
2022-12-06T13:16:12.649Z,57.50
2022-12-06T13:21:31.648Z,57.58
2022-12-06T13:26:44.375Z,57.64
2022-12-06T13:31:50.668Z,58.08
2022-12-06T13:36:57.475Z,57.86
2022-12-06T13:42:37.681Z,58.06
2022-12-06T13:47:42.107Z,57.48
2022-12-06T13:52:43.577Z,57.45
2022-12-06T13:57:53.588Z,57.83
2022-12-06T14:03:13.586Z,57.95
2022-12-06T14:08:17.191Z,57.59
2022-12-06T14:13:23.394Z,57.79
2022-12-06T14:18:31.704Z,57.66
2022-12-06T14:23:47.490Z,57.85
2022-12-06T14:28:53.312Z,58.07
2022-12-06T14:33:56.275Z,57.88
2022-12-06T14:39:20.357Z,58.13
2022-12-06T14:44:49.647Z,58.04
2022-12-06T14:50:14.909Z,58.06
2022-12-06T14:55:22.004Z,58.27
2022-12-06T15:00:52.477Z,57.51
2022-12-06T15:06:17.989Z,57.62
2022-12-06T15:11:38.342Z,57.86
2022-12-06T15:16:42.056Z,57.32
2022-12-06T15:21:51.994Z,57.50
2022-12-06T15:27:01.276Z,57.52
2022-12-06T15:32:09.199Z,57.82
2022-12-06T15:42:43.431Z,57.37
2022-12-06T15:47:49.594Z,57.52
2022-12-06T15:52:52.263Z,57.59
2022-12-06T15:57:58.943Z,57.31
2022-12-06T16:03:04.070Z,57.19
2022-12-06T16:08:14.911Z,57.11
2022-12-06T16:13:25.405Z,57.52
2022-12-06T16:18:29.494Z,57.34
2022-12-06T16:24:15.057Z,57.17
2022-12-06T16:29:32.697Z,56.99
2022-12-06T16:34:44.566Z,57.19
2022-12-06T16:39:46.165Z,56.96
2022-12-06T16:44:52.297Z,56.83
2022-12-06T16:49:53.926Z,57.28
2022-12-06T16:54:57.880Z,56.97
2022-12-06T17:00:12.649Z,56.96
2022-12-06T17:05:24.540Z,57.01
2022-12-06T17:10:30.973Z,56.98
2022-12-06T17:15:34.815Z,57.11
2022-12-06T17:20:43.751Z,57.38
2022-12-06T17:25:56.136Z,57.23
2022-12-06T17:31:12.407Z,57.04
2022-12-06T17:36:24.945Z,57.50
2022-12-06T17:41:51.819Z,57.60
2022-12-06T17:46:56.048Z,57.63
2022-12-06T17:51:57.616Z,57.72
2022-12-06T17:57:01.572Z,57.39
2022-12-06T18:02:20.088Z,57.44
2022-12-06T18:07:23.449Z,57.58
2022-12-06T18:12:36.007Z,57.97
2022-12-06T18:17:38.307Z,57.72
2022-12-06T18:22:42.142Z,57.97
2022-12-06T18:27:48.723Z,58.13
2022-12-06T18:32:50.298Z,57.75
2022-12-06T18:37:54.152Z,57.94
2022-12-06T18:43:00.767Z,58.04
2022-12-06T18:48:12.634Z,57.96
2022-12-06T18:53:15.633Z,57.26
2022-12-06T18:58:22.504Z,57.15
2022-12-06T19:03:29.313Z,57.26
2022-12-06T19:08:40.141Z,57.61
2022-12-06T19:13:55.163Z,57.57
2022-12-06T19:19:03.976Z,57.05
2022-12-06T19:24:08.903Z,57.22
2022-12-06T19:29:12.874Z,57.23
2022-12-06T19:34:25.744Z,57.36
2022-12-06T19:39:31.438Z,56.78
2022-12-06T19:44:35.753Z,57.50
2022-12-06T19:49:42.786Z,56.95
2022-12-06T19:54:49.640Z,56.87
2022-12-06T20:00:09.257Z,57.29
2022-12-06T20:05:19.695Z,56.80
2022-12-06T20:10:31.754Z,56.85
2022-12-06T20:15:36.373Z,56.84
2022-12-06T20:20:46.671Z,56.84
2022-12-06T20:25:54.194Z,56.86
2022-12-06T20:30:57.080Z,56.68
2022-12-06T20:36:00.002Z,56.93
2022-12-06T20:41:11.442Z,57.17
2022-12-06T20:46:18.071Z,56.50
2022-12-06T20:51:36.509Z,57.13
2022-12-06T20:56:49.437Z,56.75
2022-12-06T21:01:51.202Z,56.95
2022-12-06T21:06:54.871Z,57.03
2022-12-06T21:11:58.561Z,56.98
2022-12-06T21:17:00.137Z,56.83
2022-12-06T21:22:09.197Z,57.00
2022-12-06T21:27:10.786Z,57.36
2022-12-06T21:32:14.512Z,56.90
2022-12-06T21:37:35.041Z,56.80
2022-12-06T21:42:56.295Z,56.93
2022-12-06T21:48:00.926Z,57.13
2022-12-06T21:53:12.127Z,57.49
2022-12-06T21:58:19.633Z,57.53
2022-12-06T22:03:26.117Z,57.15
2022-12-06T22:08:34.377Z,57.38
2022-12-06T22:13:42.463Z,57.27
2022-12-06T22:18:57.751Z,57.47
2022-12-06T22:24:02.870Z,57.16
2022-12-06T22:29:18.823Z,57.54
2022-12-06T22:34:20.460Z,57.39
2022-12-06T22:39:23.111Z,57.67
2022-12-06T22:44:27.192Z,57.40
2022-12-06T22:49:40.211Z,57.80
2022-12-06T22:54:51.917Z,57.98
2022-12-06T23:00:00.257Z,57.90
2022-12-06T23:05:02.349Z,57.70
2022-12-06T23:10:11.057Z,57.67
2022-12-06T23:15:23.529Z,57.57
2022-12-06T23:20:34.746Z,57.42
2022-12-06T23:25:39.710Z,57.44
2022-12-06T23:30:47.591Z,57.93
2022-12-06T23:36:01.590Z,57.68
2022-12-06T23:41:11.596Z,57.71
2022-12-06T23:46:22.736Z,57.76
2022-12-06T23:51:37.685Z,57.38
2022-12-06T23:56:54.955Z,57.57
